sensor_id;sensor_type;location;lat;lon;timestamp;P1;durP1;ratioP1;P2;durP2;ratioP2
43088;SDS011;28709;52.030;5.652;2023-03-14T00:02:00;5.47;;;1.88;;
43088;SDS011;28709;52.030;5.652;2023-03-14T00:04:25;11.27;;;2.55;;
43088;SDS011;28709;52.030;5.652;2023-03-14T00:06:51;10.38;;;2.60;;
43088;SDS011;28709;52.030;5.652;2023-03-14T00:09:17;12.80;;;3.47;;
43088;SDS011;28709;52.030;5.652;2023-03-14T00:11:42;8.52;;;2.30;;
43088;SDS011;28709;52.030;5.652;2023-03-14T00:14:08;15.63;;;2.70;;
43088;SDS011;28709;52.030;5.652;2023-03-14T00:16:34;14.13;;;2.35;;
43088;SDS011;28709;52.030;5.652;2023-03-14T00:19:00;9.48;;;2.83;;
43088;SDS011;28709;52.030;5.652;2023-03-14T00:21:26;10.70;;;2.22;;
43088;SDS011;28709;52.030;5.652;2023-03-14T00:23:52;14.32;;;2.25;;
43088;SDS011;28709;52.030;5.652;2023-03-14T00:26:19;9.90;;;2.05;;
43088;SDS011;28709;52.030;5.652;2023-03-14T00:28:46;8.65;;;2.03;;
43088;SDS011;28709;52.030;5.652;2023-03-14T00:31:13;11.43;;;2.30;;
43088;SDS011;28709;52.030;5.652;2023-03-14T00:33:40;13.38;;;1.98;;
43088;SDS011;28709;52.030;5.652;2023-03-14T00:36:08;10.88;;;2.38;;
43088;SDS011;28709;52.030;5.652;2023-03-14T00:38:35;11.40;;;1.88;;
43088;SDS011;28709;52.030;5.652;2023-03-14T00:41:06;9.60;;;2.20;;
43088;SDS011;28709;52.030;5.652;2023-03-14T00:43:32;9.85;;;1.45;;
43088;SDS011;28709;52.030;5.652;2023-03-14T00:45:58;12.27;;;1.85;;
43088;SDS011;28709;52.030;5.652;2023-03-14T00:48:24;6.80;;;1.60;;
43088;SDS011;28709;52.030;5.652;2023-03-14T00:50:50;9.35;;;1.80;;
43088;SDS011;28709;52.030;5.652;2023-03-14T00:53:16;8.25;;;2.00;;
43088;SDS011;28709;52.030;5.652;2023-03-14T00:55:42;8.70;;;1.92;;
43088;SDS011;28709;52.030;5.652;2023-03-14T00:58:09;9.00;;;1.70;;
43088;SDS011;28709;52.030;5.652;2023-03-14T01:00:36;8.32;;;1.90;;
43088;SDS011;28709;52.030;5.652;2023-03-14T01:03:02;9.43;;;1.70;;
43088;SDS011;28709;52.030;5.652;2023-03-14T01:05:28;8.38;;;1.20;;
43088;SDS011;28709;52.030;5.652;2023-03-14T01:07:54;7.32;;;1.35;;
43088;SDS011;28709;52.030;5.652;2023-03-14T01:10:20;5.50;;;1.17;;
43088;SDS011;28709;52.030;5.652;2023-03-14T01:12:45;7.07;;;1.27;;
43088;SDS011;28709;52.030;5.652;2023-03-14T01:15:11;11.13;;;1.70;;
43088;SDS011;28709;52.030;5.652;2023-03-14T01:17:37;5.10;;;1.20;;
43088;SDS011;28709;52.030;5.652;2023-03-14T01:20:04;8.13;;;1.60;;
43088;SDS011;28709;52.030;5.652;2023-03-14T01:22:34;7.93;;;1.73;;
43088;SDS011;28709;52.030;5.652;2023-03-14T01:25:06;4.55;;;1.27;;
43088;SDS011;28709;52.030;5.652;2023-03-14T01:27:33;9.07;;;1.55;;
43088;SDS011;28709;52.030;5.652;2023-03-14T01:29:59;7.63;;;1.55;;
43088;SDS011;28709;52.030;5.652;2023-03-14T01:32:25;6.55;;;1.50;;
43088;SDS011;28709;52.030;5.652;2023-03-14T01:34:51;7.15;;;1.95;;
43088;SDS011;28709;52.030;5.652;2023-03-14T01:37:17;11.88;;;1.83;;
43088;SDS011;28709;52.030;5.652;2023-03-14T01:39:42;9.55;;;1.30;;
43088;SDS011;28709;52.030;5.652;2023-03-14T01:42:08;10.73;;;1.33;;
43088;SDS011;28709;52.030;5.652;2023-03-14T01:44:51;12.32;;;1.48;;
43088;SDS011;28709;52.030;5.652;2023-03-14T01:47:21;8.38;;;1.40;;
43088;SDS011;28709;52.030;5.652;2023-03-14T01:49:50;8.80;;;1.27;;
43088;SDS011;28709;52.030;5.652;2023-03-14T01:52:35;7.40;;;1.48;;
43088;SDS011;28709;52.030;5.652;2023-03-14T01:55:08;11.63;;;1.50;;
43088;SDS011;28709;52.030;5.652;2023-03-14T01:57:43;17.23;;;2.70;;
43088;SDS011;28709;52.030;5.652;2023-03-14T02:00:14;12.35;;;1.40;;
43088;SDS011;28709;52.030;5.652;2023-03-14T02:02:42;8.80;;;1.20;;
43088;SDS011;28709;52.030;5.652;2023-03-14T02:05:10;10.63;;;1.90;;
43088;SDS011;28709;52.030;5.652;2023-03-14T02:07:41;9.80;;;1.55;;
43088;SDS011;28709;52.030;5.652;2023-03-14T02:10:14;8.18;;;1.52;;
43088;SDS011;28709;52.030;5.652;2023-03-14T02:12:43;13.75;;;1.83;;
43088;SDS011;28709;52.030;5.652;2023-03-14T02:15:11;9.15;;;1.63;;
43088;SDS011;28709;52.030;5.652;2023-03-14T02:17:36;8.35;;;1.80;;
43088;SDS011;28709;52.030;5.652;2023-03-14T02:20:07;6.35;;;1.95;;
43088;SDS011;28709;52.030;5.652;2023-03-14T02:22:36;7.55;;;2.45;;
43088;SDS011;28709;52.030;5.652;2023-03-14T02:25:16;8.68;;;1.90;;
43088;SDS011;28709;52.030;5.652;2023-03-14T02:27:54;8.63;;;1.77;;
43088;SDS011;28709;52.030;5.652;2023-03-14T02:30:21;16.13;;;2.42;;
43088;SDS011;28709;52.030;5.652;2023-03-14T02:32:49;10.18;;;2.30;;
43088;SDS011;28709;52.030;5.652;2023-03-14T02:40:49;6.65;;;1.98;;
43088;SDS011;28709;52.030;5.652;2023-03-14T02:43:14;6.97;;;1.80;;
43088;SDS011;28709;52.030;5.652;2023-03-14T02:45:42;10.55;;;3.45;;
43088;SDS011;28709;52.030;5.652;2023-03-14T02:48:53;8.35;;;2.00;;
43088;SDS011;28709;52.030;5.652;2023-03-14T02:51:03;13.30;;;2.10;;
43088;SDS011;28709;52.030;5.652;2023-03-14T02:53:30;8.65;;;2.00;;
43088;SDS011;28709;52.030;5.652;2023-03-14T02:55:58;7.18;;;1.60;;
43088;SDS011;28709;52.030;5.652;2023-03-14T02:58:24;10.15;;;2.75;;
43088;SDS011;28709;52.030;5.652;2023-03-14T03:00:49;8.70;;;1.63;;
43088;SDS011;28709;52.030;5.652;2023-03-14T03:03:15;10.70;;;1.75;;
43088;SDS011;28709;52.030;5.652;2023-03-14T03:05:41;10.65;;;2.47;;
43088;SDS011;28709;52.030;5.652;2023-03-14T03:08:08;8.43;;;2.00;;
43088;SDS011;28709;52.030;5.652;2023-03-14T03:10:34;6.57;;;1.67;;
43088;SDS011;28709;52.030;5.652;2023-03-14T03:13:00;7.40;;;1.70;;
43088;SDS011;28709;52.030;5.652;2023-03-14T03:15:26;8.73;;;2.28;;
43088;SDS011;28709;52.030;5.652;2023-03-14T03:17:52;8.90;;;2.28;;
43088;SDS011;28709;52.030;5.652;2023-03-14T03:20:18;7.70;;;2.00;;
43088;SDS011;28709;52.030;5.652;2023-03-14T03:22:43;11.77;;;1.73;;
43088;SDS011;28709;52.030;5.652;2023-03-14T03:25:09;7.70;;;1.75;;
43088;SDS011;28709;52.030;5.652;2023-03-14T03:27:35;7.82;;;1.98;;
43088;SDS011;28709;52.030;5.652;2023-03-14T03:30:03;8.40;;;1.60;;
43088;SDS011;28709;52.030;5.652;2023-03-14T03:32:30;5.00;;;1.90;;
43088;SDS011;28709;52.030;5.652;2023-03-14T03:34:56;11.73;;;2.20;;
43088;SDS011;28709;52.030;5.652;2023-03-14T03:37:21;8.95;;;2.28;;
43088;SDS011;28709;52.030;5.652;2023-03-14T03:39:49;7.47;;;1.10;;
43088;SDS011;28709;52.030;5.652;2023-03-14T03:42:16;10.60;;;1.85;;
43088;SDS011;28709;52.030;5.652;2023-03-14T03:44:41;6.25;;;1.65;;
43088;SDS011;28709;52.030;5.652;2023-03-14T03:47:07;8.93;;;1.50;;
43088;SDS011;28709;52.030;5.652;2023-03-14T03:49:33;6.75;;;2.20;;
43088;SDS011;28709;52.030;5.652;2023-03-14T03:51:59;9.27;;;2.38;;
43088;SDS011;28709;52.030;5.652;2023-03-14T03:54:24;6.57;;;1.50;;
43088;SDS011;28709;52.030;5.652;2023-03-14T03:56:50;10.32;;;2.45;;
43088;SDS011;28709;52.030;5.652;2023-03-14T03:59:16;17.83;;;2.60;;
43088;SDS011;28709;52.030;5.652;2023-03-14T04:01:42;12.95;;;3.00;;
43088;SDS011;28709;52.030;5.652;2023-03-14T04:04:08;12.30;;;2.80;;
43088;SDS011;28709;52.030;5.652;2023-03-14T04:06:34;11.48;;;1.77;;
43088;SDS011;28709;52.030;5.652;2023-03-14T04:08:59;12.60;;;2.58;;
43088;SDS011;28709;52.030;5.652;2023-03-14T04:11:25;12.32;;;2.13;;
43088;SDS011;28709;52.030;5.652;2023-03-14T04:13:51;12.18;;;1.95;;
43088;SDS011;28709;52.030;5.652;2023-03-14T04:16:18;9.98;;;2.33;;
43088;SDS011;28709;52.030;5.652;2023-03-14T04:18:46;13.38;;;3.03;;
43088;SDS011;28709;52.030;5.652;2023-03-14T04:21:11;10.75;;;2.25;;
43088;SDS011;28709;52.030;5.652;2023-03-14T04:23:37;14.40;;;2.75;;
43088;SDS011;28709;52.030;5.652;2023-03-14T04:26:03;9.20;;;2.47;;
43088;SDS011;28709;52.030;5.652;2023-03-14T04:28:29;10.48;;;2.47;;
43088;SDS011;28709;52.030;5.652;2023-03-14T04:30:54;7.68;;;2.03;;
43088;SDS011;28709;52.030;5.652;2023-03-14T04:33:20;9.48;;;1.77;;
43088;SDS011;28709;52.030;5.652;2023-03-14T04:35:46;10.18;;;2.75;;
43088;SDS011;28709;52.030;5.652;2023-03-14T04:38:12;9.82;;;1.70;;
43088;SDS011;28709;52.030;5.652;2023-03-14T04:40:41;9.90;;;1.55;;
43088;SDS011;28709;52.030;5.652;2023-03-14T04:43:08;11.35;;;2.33;;
43088;SDS011;28709;52.030;5.652;2023-03-14T04:45:35;7.95;;;2.25;;
43088;SDS011;28709;52.030;5.652;2023-03-14T04:48:01;12.45;;;1.75;;
43088;SDS011;28709;52.030;5.652;2023-03-14T04:50:27;10.18;;;1.50;;
43088;SDS011;28709;52.030;5.652;2023-03-14T04:52:53;7.32;;;1.58;;
43088;SDS011;28709;52.030;5.652;2023-03-14T04:55:18;13.75;;;2.15;;
43088;SDS011;28709;52.030;5.652;2023-03-14T04:57:44;7.15;;;1.58;;
43088;SDS011;28709;52.030;5.652;2023-03-14T05:00:10;7.90;;;2.13;;
43088;SDS011;28709;52.030;5.652;2023-03-14T05:02:36;6.63;;;1.33;;
43088;SDS011;28709;52.030;5.652;2023-03-14T05:05:02;6.00;;;2.05;;
43088;SDS011;28709;52.030;5.652;2023-03-14T05:07:27;9.48;;;1.95;;
43088;SDS011;28709;52.030;5.652;2023-03-14T05:09:53;8.15;;;2.15;;
43088;SDS011;28709;52.030;5.652;2023-03-14T05:12:19;8.00;;;2.08;;
43088;SDS011;28709;52.030;5.652;2023-03-14T05:14:45;7.30;;;1.40;;
43088;SDS011;28709;52.030;5.652;2023-03-14T05:17:11;11.18;;;1.50;;
43088;SDS011;28709;52.030;5.652;2023-03-14T05:19:39;8.30;;;1.50;;
43088;SDS011;28709;52.030;5.652;2023-03-14T05:22:05;5.38;;;1.20;;
43088;SDS011;28709;52.030;5.652;2023-03-14T05:24:31;7.47;;;1.33;;
43088;SDS011;28709;52.030;5.652;2023-03-14T05:26:57;9.27;;;1.85;;
43088;SDS011;28709;52.030;5.652;2023-03-14T05:29:23;10.63;;;1.70;;
43088;SDS011;28709;52.030;5.652;2023-03-14T05:31:48;12.30;;;1.80;;
43088;SDS011;28709;52.030;5.652;2023-03-14T05:34:14;4.07;;;1.42;;
43088;SDS011;28709;52.030;5.652;2023-03-14T05:36:40;10.10;;;1.70;;
43088;SDS011;28709;52.030;5.652;2023-03-14T05:39:05;6.45;;;1.60;;
43088;SDS011;28709;52.030;5.652;2023-03-14T05:41:31;6.95;;;1.67;;
43088;SDS011;28709;52.030;5.652;2023-03-14T05:43:57;10.82;;;2.20;;
43088;SDS011;28709;52.030;5.652;2023-03-14T05:46:22;5.95;;;1.75;;
43088;SDS011;28709;52.030;5.652;2023-03-14T05:48:48;6.85;;;1.90;;
43088;SDS011;28709;52.030;5.652;2023-03-14T05:51:14;6.95;;;2.00;;
43088;SDS011;28709;52.030;5.652;2023-03-14T05:53:39;9.30;;;1.70;;
43088;SDS011;28709;52.030;5.652;2023-03-14T05:56:05;5.50;;;1.58;;
43088;SDS011;28709;52.030;5.652;2023-03-14T05:58:31;9.38;;;1.80;;
43088;SDS011;28709;52.030;5.652;2023-03-14T06:00:57;3.38;;;1.88;;
43088;SDS011;28709;52.030;5.652;2023-03-14T06:03:22;7.90;;;1.90;;
43088;SDS011;28709;52.030;5.652;2023-03-14T06:05:51;10.30;;;2.35;;
43088;SDS011;28709;52.030;5.652;2023-03-14T06:08:17;8.48;;;2.47;;
43088;SDS011;28709;52.030;5.652;2023-03-14T06:10:43;5.85;;;2.17;;
43088;SDS011;28709;52.030;5.652;2023-03-14T06:13:08;10.27;;;2.72;;
43088;SDS011;28709;52.030;5.652;2023-03-14T06:15:34;8.80;;;2.92;;
43088;SDS011;28709;52.030;5.652;2023-03-14T06:18:01;7.43;;;2.03;;
43088;SDS011;28709;52.030;5.652;2023-03-14T06:20:26;11.05;;;2.50;;
43088;SDS011;28709;52.030;5.652;2023-03-14T06:22:52;6.30;;;2.22;;
43088;SDS011;28709;52.030;5.652;2023-03-14T06:25:18;11.35;;;2.95;;
43088;SDS011;28709;52.030;5.652;2023-03-14T06:27:44;5.47;;;2.88;;
43088;SDS011;28709;52.030;5.652;2023-03-14T06:30:09;7.03;;;2.75;;
43088;SDS011;28709;52.030;5.652;2023-03-14T06:32:35;8.02;;;2.90;;
43088;SDS011;28709;52.030;5.652;2023-03-14T06:35:01;5.15;;;2.90;;
43088;SDS011;28709;52.030;5.652;2023-03-14T06:37:27;12.15;;;4.00;;
43088;SDS011;28709;52.030;5.652;2023-03-14T06:39:54;7.43;;;3.70;;
43088;SDS011;28709;52.030;5.652;2023-03-14T06:42:20;9.00;;;3.65;;
43088;SDS011;28709;52.030;5.652;2023-03-14T06:44:46;10.40;;;4.07;;
43088;SDS011;28709;52.030;5.652;2023-03-14T06:47:12;8.88;;;3.70;;
43088;SDS011;28709;52.030;5.652;2023-03-14T06:49:38;8.80;;;4.22;;
43088;SDS011;28709;52.030;5.652;2023-03-14T06:52:03;10.27;;;4.53;;
43088;SDS011;28709;52.030;5.652;2023-03-14T06:54:29;9.60;;;4.60;;
43088;SDS011;28709;52.030;5.652;2023-03-14T06:56:55;8.02;;;4.13;;
43088;SDS011;28709;52.030;5.652;2023-03-14T06:59:20;11.25;;;4.25;;
43088;SDS011;28709;52.030;5.652;2023-03-14T07:01:46;9.82;;;4.43;;
43088;SDS011;28709;52.030;5.652;2023-03-14T07:04:13;9.90;;;4.35;;
43088;SDS011;28709;52.030;5.652;2023-03-14T07:06:39;11.35;;;5.35;;
43088;SDS011;28709;52.030;5.652;2023-03-14T07:09:09;8.85;;;4.22;;
43088;SDS011;28709;52.030;5.652;2023-03-14T07:11:35;4.93;;;2.80;;
43088;SDS011;28709;52.030;5.652;2023-03-14T07:14:01;5.95;;;1.73;;
43088;SDS011;28709;52.030;5.652;2023-03-14T07:16:26;4.88;;;1.40;;
43088;SDS011;28709;52.030;5.652;2023-03-14T07:18:54;2.67;;;0.77;;
43088;SDS011;28709;52.030;5.652;2023-03-14T07:21:19;1.40;;;0.77;;
43088;SDS011;28709;52.030;5.652;2023-03-14T07:23:45;2.70;;;1.10;;
43088;SDS011;28709;52.030;5.652;2023-03-14T07:26:10;1.73;;;0.98;;
43088;SDS011;28709;52.030;5.652;2023-03-14T07:28:36;3.15;;;1.25;;
43088;SDS011;28709;52.030;5.652;2023-03-14T07:31:02;1.65;;;0.57;;
43088;SDS011;28709;52.030;5.652;2023-03-14T07:33:27;2.22;;;0.73;;
43088;SDS011;28709;52.030;5.652;2023-03-14T07:35:53;1.88;;;0.60;;
43088;SDS011;28709;52.030;5.652;2023-03-14T07:38:19;1.42;;;0.50;;
43088;SDS011;28709;52.030;5.652;2023-03-14T07:40:44;2.28;;;0.70;;
43088;SDS011;28709;52.030;5.652;2023-03-14T07:43:10;5.10;;;1.60;;
43088;SDS011;28709;52.030;5.652;2023-03-14T07:45:36;1.35;;;0.63;;
43088;SDS011;28709;52.030;5.652;2023-03-14T07:48:01;3.25;;;1.02;;
43088;SDS011;28709;52.030;5.652;2023-03-14T07:50:27;2.83;;;0.70;;
43088;SDS011;28709;52.030;5.652;2023-03-14T07:52:53;2.42;;;0.82;;
43088;SDS011;28709;52.030;5.652;2023-03-14T07:55:19;4.50;;;1.52;;
43088;SDS011;28709;52.030;5.652;2023-03-14T07:57:45;6.82;;;1.00;;
43088;SDS011;28709;52.030;5.652;2023-03-14T08:00:11;2.47;;;0.73;;
43088;SDS011;28709;52.030;5.652;2023-03-14T08:02:39;2.55;;;0.80;;
43088;SDS011;28709;52.030;5.652;2023-03-14T08:05:05;3.67;;;0.70;;
43088;SDS011;28709;52.030;5.652;2023-03-14T08:07:31;2.35;;;0.80;;
43088;SDS011;28709;52.030;5.652;2023-03-14T08:09:57;1.48;;;0.85;;
43088;SDS011;28709;52.030;5.652;2023-03-14T08:12:22;3.45;;;0.98;;
43088;SDS011;28709;52.030;5.652;2023-03-14T08:14:48;6.78;;;1.10;;
43088;SDS011;28709;52.030;5.652;2023-03-14T08:17:14;2.58;;;0.60;;
43088;SDS011;28709;52.030;5.652;2023-03-14T08:19:40;5.95;;;0.95;;
43088;SDS011;28709;52.030;5.652;2023-03-14T08:22:07;2.05;;;0.70;;
43088;SDS011;28709;52.030;5.652;2023-03-14T08:24:32;10.88;;;2.15;;
43088;SDS011;28709;52.030;5.652;2023-03-14T08:26:58;5.68;;;0.90;;
43088;SDS011;28709;52.030;5.652;2023-03-14T08:29:24;4.80;;;1.13;;
43088;SDS011;28709;52.030;5.652;2023-03-14T08:31:50;4.88;;;0.88;;
43088;SDS011;28709;52.030;5.652;2023-03-14T08:34:15;6.10;;;1.15;;
43088;SDS011;28709;52.030;5.652;2023-03-14T08:36:41;5.35;;;0.50;;
43088;SDS011;28709;52.030;5.652;2023-03-14T08:39:07;4.28;;;0.60;;
43088;SDS011;28709;52.030;5.652;2023-03-14T08:41:33;9.02;;;0.73;;
43088;SDS011;28709;52.030;5.652;2023-03-14T08:44:05;6.35;;;0.90;;
43088;SDS011;28709;52.030;5.652;2023-03-14T08:46:31;6.85;;;1.25;;
43088;SDS011;28709;52.030;5.652;2023-03-14T08:48:57;9.13;;;1.17;;
43088;SDS011;28709;52.030;5.652;2023-03-14T08:51:22;8.43;;;1.13;;
43088;SDS011;28709;52.030;5.652;2023-03-14T08:53:48;7.45;;;1.42;;
43088;SDS011;28709;52.030;5.652;2023-03-14T08:56:14;6.35;;;1.88;;
43088;SDS011;28709;52.030;5.652;2023-03-14T08:58:39;2.78;;;0.65;;
43088;SDS011;28709;52.030;5.652;2023-03-14T09:01:07;3.83;;;0.77;;
43088;SDS011;28709;52.030;5.652;2023-03-14T09:03:34;1.95;;;0.52;;
43088;SDS011;28709;52.030;5.652;2023-03-14T09:06:03;1.60;;;0.68;;
43088;SDS011;28709;52.030;5.652;2023-03-14T09:08:30;2.92;;;0.60;;
43088;SDS011;28709;52.030;5.652;2023-03-14T09:10:56;3.80;;;0.57;;
43088;SDS011;28709;52.030;5.652;2023-03-14T09:13:22;7.25;;;0.65;;
43088;SDS011;28709;52.030;5.652;2023-03-14T09:15:55;7.07;;;1.38;;
43088;SDS011;28709;52.030;5.652;2023-03-14T09:18:21;2.95;;;0.65;;
43088;SDS011;28709;52.030;5.652;2023-03-14T09:20:47;3.03;;;0.98;;
43088;SDS011;28709;52.030;5.652;2023-03-14T09:23:13;6.85;;;0.60;;
43088;SDS011;28709;52.030;5.652;2023-03-14T09:25:39;2.97;;;0.70;;
43088;SDS011;28709;52.030;5.652;2023-03-14T09:28:05;4.30;;;0.75;;
43088;SDS011;28709;52.030;5.652;2023-03-14T09:30:31;3.78;;;0.50;;
43088;SDS011;28709;52.030;5.652;2023-03-14T09:32:56;4.57;;;0.70;;
43088;SDS011;28709;52.030;5.652;2023-03-14T09:35:23;8.02;;;1.00;;
43088;SDS011;28709;52.030;5.652;2023-03-14T09:37:48;7.78;;;1.08;;
43088;SDS011;28709;52.030;5.652;2023-03-14T09:40:15;10.07;;;1.40;;
43088;SDS011;28709;52.030;5.652;2023-03-14T09:42:42;7.20;;;0.80;;
43088;SDS011;28709;52.030;5.652;2023-03-14T09:45:13;5.13;;;1.33;;
43088;SDS011;28709;52.030;5.652;2023-03-14T09:47:43;7.97;;;1.83;;
43088;SDS011;28709;52.030;5.652;2023-03-14T09:50:14;10.43;;;1.33;;
43088;SDS011;28709;52.030;5.652;2023-03-14T09:52:41;9.10;;;1.08;;
43088;SDS011;28709;52.030;5.652;2023-03-14T09:55:12;8.65;;;1.42;;
43088;SDS011;28709;52.030;5.652;2023-03-14T09:57:41;10.60;;;2.15;;
43088;SDS011;28709;52.030;5.652;2023-03-14T10:00:15;13.95;;;1.63;;
43088;SDS011;28709;52.030;5.652;2023-03-14T10:05:33;10.98;;;2.08;;
43088;SDS011;28709;52.030;5.652;2023-03-14T10:07:59;10.32;;;1.27;;
43088;SDS011;28709;52.030;5.652;2023-03-14T10:10:25;17.00;;;2.28;;
43088;SDS011;28709;52.030;5.652;2023-03-14T10:12:59;18.08;;;3.33;;
43088;SDS011;28709;52.030;5.652;2023-03-14T10:15:53;14.00;;;1.98;;
43088;SDS011;28709;52.030;5.652;2023-03-14T10:18:19;17.60;;;2.75;;
43088;SDS011;28709;52.030;5.652;2023-03-14T10:20:45;15.45;;;2.75;;
43088;SDS011;28709;52.030;5.652;2023-03-14T10:23:29;20.65;;;3.20;;
43088;SDS011;28709;52.030;5.652;2023-03-14T10:26:05;18.30;;;2.33;;
43088;SDS011;28709;52.030;5.652;2023-03-14T10:28:43;15.98;;;2.30;;
43088;SDS011;28709;52.030;5.652;2023-03-14T10:31:09;13.68;;;2.30;;
43088;SDS011;28709;52.030;5.652;2023-03-14T10:33:35;14.00;;;1.40;;
43088;SDS011;28709;52.030;5.652;2023-03-14T10:36:06;16.13;;;3.17;;
43088;SDS011;28709;52.030;5.652;2023-03-14T10:38:48;14.05;;;2.45;;
43088;SDS011;28709;52.030;5.652;2023-03-14T10:41:19;12.52;;;2.47;;
43088;SDS011;28709;52.030;5.652;2023-03-14T10:43:50;12.25;;;2.47;;
43088;SDS011;28709;52.030;5.652;2023-03-14T10:46:23;20.60;;;3.50;;
43088;SDS011;28709;52.030;5.652;2023-03-14T10:48:50;17.85;;;2.25;;
43088;SDS011;28709;52.030;5.652;2023-03-14T10:51:27;10.95;;;2.42;;
43088;SDS011;28709;52.030;5.652;2023-03-14T10:54:40;12.23;;;1.83;;
43088;SDS011;28709;52.030;5.652;2023-03-14T10:56:57;12.90;;;2.25;;
43088;SDS011;28709;52.030;5.652;2023-03-14T10:59:25;19.67;;;3.78;;
43088;SDS011;28709;52.030;5.652;2023-03-14T11:02:03;22.50;;;2.25;;
43088;SDS011;28709;52.030;5.652;2023-03-14T11:07:32;14.93;;;2.20;;
43088;SDS011;28709;52.030;5.652;2023-03-14T11:10:08;10.13;;;2.15;;
43088;SDS011;28709;52.030;5.652;2023-03-14T11:15:35;21.02;;;2.60;;
43088;SDS011;28709;52.030;5.652;2023-03-14T11:20:55;16.00;;;3.15;;
43088;SDS011;28709;52.030;5.652;2023-03-14T11:29:02;27.48;;;3.25;;
43088;SDS011;28709;52.030;5.652;2023-03-14T11:31:44;15.48;;;2.40;;
43088;SDS011;28709;52.030;5.652;2023-03-14T11:37:17;14.98;;;2.10;;
43088;SDS011;28709;52.030;5.652;2023-03-14T11:40:18;17.27;;;3.00;;
43088;SDS011;28709;52.030;5.652;2023-03-14T11:42:48;20.35;;;2.15;;
43088;SDS011;28709;52.030;5.652;2023-03-14T11:45:25;13.68;;;2.13;;
43088;SDS011;28709;52.030;5.652;2023-03-14T11:50:46;12.98;;;2.75;;
43088;SDS011;28709;52.030;5.652;2023-03-14T11:53:16;15.60;;;2.08;;
43088;SDS011;28709;52.030;5.652;2023-03-14T11:56:01;9.82;;;2.08;;
43088;SDS011;28709;52.030;5.652;2023-03-14T11:58:29;28.33;;;4.00;;
43088;SDS011;28709;52.030;5.652;2023-03-14T12:01:03;11.77;;;1.98;;
43088;SDS011;28709;52.030;5.652;2023-03-14T12:03:45;13.43;;;2.15;;
43088;SDS011;28709;52.030;5.652;2023-03-14T12:08:50;16.00;;;1.67;;
43088;SDS011;28709;52.030;5.652;2023-03-14T12:14:03;12.90;;;2.08;;
43088;SDS011;28709;52.030;5.652;2023-03-14T12:16:43;14.13;;;1.90;;
43088;SDS011;28709;52.030;5.652;2023-03-14T12:19:13;9.98;;;2.55;;
43088;SDS011;28709;52.030;5.652;2023-03-14T12:24:29;6.85;;;1.55;;
43088;SDS011;28709;52.030;5.652;2023-03-14T12:26:57;15.02;;;2.00;;
43088;SDS011;28709;52.030;5.652;2023-03-14T12:29:25;11.13;;;1.63;;
43088;SDS011;28709;52.030;5.652;2023-03-14T12:37:00;11.02;;;1.90;;
43088;SDS011;28709;52.030;5.652;2023-03-14T12:39:47;6.88;;;1.10;;
43088;SDS011;28709;52.030;5.652;2023-03-14T12:45:24;9.73;;;1.40;;
43088;SDS011;28709;52.030;5.652;2023-03-14T12:47:56;9.80;;;1.60;;
43088;SDS011;28709;52.030;5.652;2023-03-14T12:50:46;8.52;;;1.50;;
43088;SDS011;28709;52.030;5.652;2023-03-14T13:01:53;12.18;;;1.75;;
43088;SDS011;28709;52.030;5.652;2023-03-14T13:04:26;6.90;;;1.40;;
43088;SDS011;28709;52.030;5.652;2023-03-14T13:06:58;6.10;;;1.30;;
43088;SDS011;28709;52.030;5.652;2023-03-14T13:11:54;5.40;;;1.13;;
43088;SDS011;28709;52.030;5.652;2023-03-14T13:14:27;7.35;;;1.02;;
43088;SDS011;28709;52.030;5.652;2023-03-14T13:16:53;10.27;;;1.70;;
43088;SDS011;28709;52.030;5.652;2023-03-14T13:19:20;6.97;;;1.20;;
43088;SDS011;28709;52.030;5.652;2023-03-14T13:21:50;6.32;;;0.98;;
43088;SDS011;28709;52.030;5.652;2023-03-14T13:26:49;3.22;;;0.77;;
43088;SDS011;28709;52.030;5.652;2023-03-14T13:29:20;8.05;;;1.30;;
43088;SDS011;28709;52.030;5.652;2023-03-14T13:31:48;6.38;;;1.00;;
43088;SDS011;28709;52.030;5.652;2023-03-14T13:34:15;5.57;;;1.13;;
43088;SDS011;28709;52.030;5.652;2023-03-14T13:36:42;6.22;;;1.75;;
43088;SDS011;28709;52.030;5.652;2023-03-14T13:39:13;7.50;;;1.83;;
43088;SDS011;28709;52.030;5.652;2023-03-14T13:41:42;9.77;;;1.25;;
43088;SDS011;28709;52.030;5.652;2023-03-14T13:44:12;4.88;;;1.23;;
43088;SDS011;28709;52.030;5.652;2023-03-14T13:46:41;6.28;;;1.15;;
43088;SDS011;28709;52.030;5.652;2023-03-14T13:49:09;6.38;;;1.38;;
43088;SDS011;28709;52.030;5.652;2023-03-14T13:51:40;5.30;;;1.00;;
43088;SDS011;28709;52.030;5.652;2023-03-14T13:54:14;7.90;;;1.00;;
43088;SDS011;28709;52.030;5.652;2023-03-14T13:59:24;7.72;;;1.45;;
43088;SDS011;28709;52.030;5.652;2023-03-14T14:01:51;9.95;;;1.63;;
43088;SDS011;28709;52.030;5.652;2023-03-14T14:04:19;4.82;;;0.90;;
43088;SDS011;28709;52.030;5.652;2023-03-14T14:06:57;5.03;;;1.08;;
43088;SDS011;28709;52.030;5.652;2023-03-14T14:09:24;5.55;;;1.40;;
43088;SDS011;28709;52.030;5.652;2023-03-14T14:14:32;8.05;;;2.35;;
43088;SDS011;28709;52.030;5.652;2023-03-14T14:17:04;7.35;;;1.98;;
43088;SDS011;28709;52.030;5.652;2023-03-14T14:19:32;7.68;;;1.00;;
43088;SDS011;28709;52.030;5.652;2023-03-14T14:22:00;6.05;;;0.95;;
43088;SDS011;28709;52.030;5.652;2023-03-14T14:24:31;5.03;;;0.88;;
43088;SDS011;28709;52.030;5.652;2023-03-14T14:29:32;11.13;;;1.33;;
43088;SDS011;28709;52.030;5.652;2023-03-14T14:32:03;8.52;;;1.17;;
43088;SDS011;28709;52.030;5.652;2023-03-14T14:34:45;4.97;;;1.03;;
43088;SDS011;28709;52.030;5.652;2023-03-14T14:37:21;6.38;;;1.27;;
43088;SDS011;28709;52.030;5.652;2023-03-14T14:39:52;6.38;;;1.38;;
43088;SDS011;28709;52.030;5.652;2023-03-14T14:42:24;7.45;;;1.10;;
43088;SDS011;28709;52.030;5.652;2023-03-14T14:44:52;11.70;;;1.35;;
43088;SDS011;28709;52.030;5.652;2023-03-14T14:47:20;4.47;;;1.40;;
43088;SDS011;28709;52.030;5.652;2023-03-14T14:49:48;7.80;;;1.50;;
43088;SDS011;28709;52.030;5.652;2023-03-14T14:52:16;9.07;;;1.13;;
43088;SDS011;28709;52.030;5.652;2023-03-14T14:54:45;5.65;;;1.20;;
43088;SDS011;28709;52.030;5.652;2023-03-14T15:00:07;5.80;;;1.50;;
43088;SDS011;28709;52.030;5.652;2023-03-14T15:02:47;6.50;;;1.50;;
43088;SDS011;28709;52.030;5.652;2023-03-14T15:05:14;9.00;;;1.75;;
43088;SDS011;28709;52.030;5.652;2023-03-14T15:07:42;10.77;;;1.23;;
43088;SDS011;28709;52.030;5.652;2023-03-14T15:10:11;8.60;;;1.35;;
43088;SDS011;28709;52.030;5.652;2023-03-14T15:12:39;13.65;;;1.40;;
43088;SDS011;28709;52.030;5.652;2023-03-14T15:15:05;7.35;;;1.40;;
43088;SDS011;28709;52.030;5.652;2023-03-14T15:17:32;3.88;;;0.80;;
43088;SDS011;28709;52.030;5.652;2023-03-14T15:19:58;6.50;;;0.93;;
43088;SDS011;28709;52.030;5.652;2023-03-14T15:22:23;5.50;;;0.90;;
43088;SDS011;28709;52.030;5.652;2023-03-14T15:24:49;8.85;;;1.58;;
43088;SDS011;28709;52.030;5.652;2023-03-14T15:27:15;6.60;;;1.35;;
43088;SDS011;28709;52.030;5.652;2023-03-14T15:29:42;3.15;;;0.82;;
43088;SDS011;28709;52.030;5.652;2023-03-14T15:32:13;6.18;;;1.17;;
43088;SDS011;28709;52.030;5.652;2023-03-14T15:34:40;5.05;;;1.17;;
43088;SDS011;28709;52.030;5.652;2023-03-14T15:37:13;8.63;;;2.00;;
43088;SDS011;28709;52.030;5.652;2023-03-14T15:39:43;7.72;;;1.23;;
43088;SDS011;28709;52.030;5.652;2023-03-14T15:42:10;9.70;;;0.90;;
43088;SDS011;28709;52.030;5.652;2023-03-14T15:44:35;7.80;;;2.10;;
43088;SDS011;28709;52.030;5.652;2023-03-14T15:47:01;9.38;;;1.65;;
43088;SDS011;28709;52.030;5.652;2023-03-14T15:49:27;11.18;;;1.10;;
43088;SDS011;28709;52.030;5.652;2023-03-14T15:51:53;2.97;;;1.20;;
43088;SDS011;28709;52.030;5.652;2023-03-14T15:54:19;6.97;;;1.00;;
43088;SDS011;28709;52.030;5.652;2023-03-14T15:56:45;7.80;;;1.27;;
43088;SDS011;28709;52.030;5.652;2023-03-14T15:59:11;7.88;;;1.02;;